Time;durP1;ratioP1;P1;durP2;ratioP2;P2;SDS_P1;SDS_P2;PMS_P1;PMS_P2;Temp;Humidity;BMP_temperature;BMP_pressure;BME280_temperature;BME280_humidity;BME280_pressure;Samples;Min_cycle;Max_cycle;Signal;HPM_P1;HPM_P2
2023/01/02 00:00:10;;;;;;;45.15;22.13;;;;;;;10.03;63.45;102157.09;4937492;28;20046;-83
2023/01/02 00:02:35;;;;;;;53.60;19.75;;;;;;;10.05;63.63;102175.84;4955999;28;20042;-84
2023/01/02 00:05:01;;;;;;;58.40;21.05;;;;;;;10.00;63.50;102161.81;4955486;28;20032;-83
2023/01/02 00:07:26;;;;;;;45.45;21.63;;;;;;;9.92;63.53;102151.44;4961940;28;20035;-83
2023/01/02 00:09:51;;;;;;;36.38;19.08;;;;;;;10.00;63.34;102156.44;4978727;28;20021;-84
2023/01/02 00:12:17;;;;;;;47.00;21.75;;;;;;;9.96;63.53;102160.22;4961468;28;20058;-83
2023/01/02 00:14:42;;;;;;;48.88;21.80;;;;;;;9.87;63.69;102158.91;4976630;28;20035;-84
2023/01/02 00:17:08;;;;;;;40.83;21.45;;;;;;;9.95;63.60;102163.84;4973834;28;20094;-83
2023/01/02 00:19:33;;;;;;;43.53;21.25;;;;;;;9.95;63.72;102163.84;4966758;29;20474;-83
2023/01/02 00:21:58;;;;;;;46.78;23.13;;;;;;;9.95;63.75;102161.16;4954740;28;20399;-84
2023/01/02 00:24:24;;;;;;;40.20;22.35;;;;;;;9.82;63.97;102158.25;4954331;28;20755;-83
2023/01/02 00:26:49;;;;;;;44.40;22.85;;;;;;;9.80;64.13;102160.19;4953636;28;20479;-83
2023/01/02 00:29:15;;;;;;;48.60;22.10;;;;;;;9.80;63.93;102152.13;4954178;28;20522;-83
2023/01/02 00:31:40;;;;;;;43.53;21.38;;;;;;;9.85;64.17;102150.03;4953460;28;20134;-83
2023/01/02 00:34:05;;;;;;;39.67;21.15;;;;;;;9.86;63.87;102149.09;4956407;28;20363;-82
2023/01/02 00:36:31;;;;;;;44.67;20.65;;;;;;;9.82;64.09;102153.78;4961838;28;20027;-82
2023/01/02 00:38:56;;;;;;;41.85;21.38;;;;;;;9.88;64.04;102151.72;4961875;28;20108;-82
2023/01/02 00:41:22;;;;;;;38.42;19.30;;;;;;;9.80;64.32;102139.56;4936432;29;20039;-83
2023/01/02 00:43:48;;;;;;;33.83;18.85;;;;;;;9.93;64.19;102139.75;4952784;28;20019;-83
2023/01/02 00:46:14;;;;;;;36.42;18.42;;;;;;;9.92;64.06;102139.84;4952475;28;20493;-83
2023/01/02 00:48:40;;;;;;;40.72;20.02;;;;;;;9.96;63.87;102138.72;4935896;29;20435;-85
2023/01/02 00:51:06;;;;;;;30.90;17.83;;;;;;;9.97;63.84;102140.47;4952588;28;20094;-84
2023/01/02 00:53:32;;;;;;;38.42;17.40;;;;;;;9.94;63.83;102130.72;4952762;28;20525;-83
2023/01/02 00:55:57;;;;;;;36.65;18.92;;;;;;;9.87;63.93;102133.84;4952701;28;20031;-83
2023/01/02 00:58:23;;;;;;;37.13;18.70;;;;;;;9.83;63.94;102122.41;4935663;29;20024;-84
2023/01/02 01:00:49;;;;;;;34.97;19.52;;;;;;;9.84;64.21;102135.75;4952271;28;20031;-83
2023/01/02 01:03:14;;;;;;;38.40;19.98;;;;;;;9.67;64.51;102116.09;4952663;28;20070;-83
2023/01/02 01:05:40;;;;;;;35.38;18.08;;;;;;;9.83;64.31;102125.09;4952724;28;20058;-83
2023/01/02 01:08:05;;;;;;;34.70;18.23;;;;;;;9.74;64.39;102107.66;4952620;28;20030;-83
2023/01/02 01:10:31;;;;;;;34.45;17.65;;;;;;;9.77;64.66;102125.41;4952169;28;20152;-83
2023/01/02 01:12:56;;;;;;;35.33;18.45;;;;;;;9.67;64.82;102127.72;4952315;28;20110;-84
2023/01/02 01:15:22;;;;;;;36.08;18.08;;;;;;;9.68;64.67;102113.34;4952460;28;20035;-84
2023/01/02 01:17:47;;;;;;;33.25;17.10;;;;;;;9.83;64.67;102119.72;4952258;28;20050;-84
2023/01/02 01:20:13;;;;;;;34.75;17.00;;;;;;;9.82;64.29;102126.03;4952235;28;20027;-83
2023/01/02 01:22:39;;;;;;;29.30;15.50;;;;;;;9.80;64.26;102128.81;4892820;29;20517;-83
2023/01/02 01:25:04;;;;;;;29.88;17.05;;;;;;;9.75;64.49;102105.84;4892506;29;20112;-83
2023/01/02 01:27:30;;;;;;;26.90;15.48;;;;;;;9.85;64.37;102109.72;4893122;29;20528;-83
2023/01/02 01:29:55;;;;;;;32.38;15.02;;;;;;;9.89;64.17;102115.81;4892776;29;20033;-83
2023/01/02 01:32:21;;;;;;;25.63;14.95;;;;;;;9.87;64.14;102107.84;4893208;29;20037;-83
2023/01/02 01:34:46;;;;;;;28.17;14.82;;;;;;;9.80;64.17;102114.50;4893067;29;20493;-83
2023/01/02 01:37:12;;;;;;;26.58;13.80;;;;;;;9.76;64.10;102094.97;4894320;29;20622;-82
2023/01/02 01:39:37;;;;;;;24.85;13.23;;;;;;;9.76;63.93;102108.41;4903282;29;20048;-83
2023/01/02 01:42:03;;;;;;;24.17;12.35;;;;;;;9.85;64.08;102113.28;4907992;29;20180;-83
2023/01/02 01:44:42;;;;;;;22.20;12.77;;;;;;;9.84;63.98;102111.56;4906949;29;20121;-83
2023/01/02 01:47:21;;;;;;;30.15;12.73;;;;;;;9.72;64.13;102096.09;4896611;29;20043;-84
2023/01/02 01:49:50;;;;;;;57.55;29.00;;;;;;;9.72;64.30;102097.94;4896776;29;20480;-84
2023/01/02 01:52:20;;;;;;;29.38;13.77;;;;;;;9.70;64.34;102079.19;4897077;29;20028;-83
2023/01/02 01:54:53;;;;;;;21.23;14.50;;;;;;;9.68;64.53;102097.22;4953787;28;20043;-84
2023/01/02 01:57:26;;;;;;;21.52;12.07;;;;;;;9.66;64.66;102093.75;4955466;28;20194;-83
2023/01/02 01:59:52;;;;;;;28.02;13.40;;;;;;;9.63;64.65;102098.44;4957987;28;20031;-83
2023/01/02 02:02:19;;;;;;;27.92;13.75;;;;;;;9.63;64.65;102101.97;4954354;28;20038;-84
2023/01/02 02:04:45;;;;;;;22.80;13.95;;;;;;;9.60;64.88;102101.28;4955474;28;20034;-84
2023/01/02 02:07:11;;;;;;;34.50;13.15;;;;;;;9.47;65.22;102087.66;4955305;28;20028;-84
2023/01/02 02:09:44;;;;;;;24.92;13.05;;;;;;;9.45;65.55;102088.69;4955354;28;20028;-83
2023/01/02 02:12:11;;;;;;;32.83;15.05;;;;;;;9.34;65.25;102070.44;4955021;28;20521;-83
2023/01/02 02:14:37;;;;;;;27.65;14.15;;;;;;;9.41;65.46;102082.59;4955558;28;20051;-83
2023/01/02 02:17:21;;;;;;;23.10;12.75;;;;;;;9.46;65.34;102080.53;4955279;28;20066;-83
2023/01/02 02:20:05;;;;;;;25.05;14.98;;;;;;;9.56;65.56;102076.41;4955075;28;20027;-83
2023/01/02 02:22:58;;;;;;;22.75;13.02;;;;;;;9.59;65.19;102083.44;4954853;28;20700;-84
2023/01/02 02:25:42;;;;;;;30.40;13.32;;;;;;;9.65;65.22;102078.59;4954582;28;20062;-84
2023/01/02 02:28:51;;;;;;;24.45;11.68;;;;;;;9.60;65.17;102072.59;4955067;28;20033;-84
2023/01/02 02:31:32;;;;;;;16.70;11.25;;;;;;;9.65;65.07;102078.59;4895507;29;20512;-83
2023/01/02 02:34:14;;;;;;;28.27;12.02;;;;;;;9.56;65.28;102070.16;4895438;29;20049;-83
2023/01/02 02:36:50;;;;;;;18.67;11.20;;;;;;;9.67;65.09;102079.38;4895930;29;20040;-83
2023/01/02 02:39:43;;;;;;;25.77;12.73;;;;;;;9.66;64.87;102077.63;4895677;29;20101;-83
2023/01/02 02:42:42;;;;;;;19.00;12.27;;;;;;;9.66;64.79;102072.25;4895612;29;20140;-84
2023/01/02 02:45:10;;;;;;;18.95;11.93;;;;;;;9.62;64.94;102081.44;4902977;29;20052;-83
2023/01/02 02:47:47;;;;;;;23.67;12.18;;;;;;;9.46;65.29;102069.78;4905265;29;20092;-83
2023/01/02 02:50:55;;;;;;;16.60;10.88;;;;;;;9.55;65.50;102080.03;4900610;29;20477;-83
2023/01/02 02:53:31;;;;;;;24.75;12.18;;;;;;;9.51;65.47;102066.88;4858260;29;20045;-84
2023/01/02 02:55:58;;;;;;;22.50;12.02;;;;;;;9.42;65.32;102073.56;4859058;29;20120;-83
2023/01/02 02:58:27;;;;;;;22.88;12.48;;;;;;;9.50;65.24;102075.88;4858058;29;20044;-84
2023/01/02 03:01:15;;;;;;;21.23;13.05;;;;;;;9.46;65.62;102077.84;4858234;29;20048;-83
2023/01/02 03:03:41;;;;;;;21.98;12.18;;;;;;;9.45;65.20;102077.94;4857767;29;20031;-83
2023/01/02 03:06:17;;;;;;;19.77;12.32;;;;;;;9.37;65.59;102086.41;4891894;29;20063;-83
2023/01/02 03:08:48;;;;;;;18.92;12.15;;;;;;;9.32;65.62;102092.97;4895109;29;20221;-83
2023/01/02 03:11:14;;;;;;;19.30;12.55;;;;;;;9.29;65.88;102091.31;4895270;29;20079;-83
2023/01/02 03:13:47;;;;;;;21.02;13.63;;;;;;;9.32;65.97;102085.78;4895030;29;20036;-83
2023/01/02 03:16:27;;;;;;;17.58;12.57;;;;;;;9.38;65.88;102085.47;4894856;29;20119;-83
2023/01/02 03:19:15;;;;;;;19.67;13.63;;;;;;;9.38;65.81;102098.88;4894413;29;20053;-84
2023/01/02 03:21:47;;;;;;;26.38;14.32;;;;;;;9.35;65.83;102091.00;4894748;29;20096;-85
2023/01/02 03:24:17;;;;;;;23.05;13.55;;;;;;;9.37;66.04;102089.09;4894629;29;20108;-84
2023/01/02 03:26:45;;;;;;;18.33;12.43;;;;;;;9.42;65.88;102089.69;4894720;29;20055;-84
2023/01/02 03:29:23;;;;;;;23.02;13.02;;;;;;;9.43;65.71;102095.94;4894505;29;20559;-83
2023/01/02 03:31:54;;;;;;;20.67;13.18;;;;;;;9.42;65.96;102100.44;4953813;28;20537;-83
2023/01/02 03:34:25;;;;;;;19.00;11.93;;;;;;;9.48;65.68;102097.41;4953911;28;20077;-84
2023/01/02 03:36:57;;;;;;;21.95;12.77;;;;;;;9.54;65.71;102091.72;4954078;28;20122;-83
2023/01/02 03:39:28;;;;;;;21.48;13.07;;;;;;;9.45;65.54;102084.16;4953757;28;20537;-84
2023/01/02 03:42:01;;;;;;;23.13;13.98;;;;;;;9.50;65.55;102087.47;4954174;28;20106;-83
2023/01/02 03:44:39;;;;;;;21.90;13.02;;;;;;;9.44;65.27;102087.81;4953630;28;20035;-83
2023/01/02 03:47:23;;;;;;;21.27;13.48;;;;;;;9.40;65.47;102075.50;4953760;28;20023;-83
2023/01/02 03:49:53;;;;;;;27.90;14.25;;;;;;;9.34;65.62;102075.81;4959871;28;20027;-82
2023/01/02 03:52:19;;;;;;;27.73;14.68;;;;;;;9.32;65.67;102092.97;4963977;28;20107;-82
2023/01/02 03:54:45;;;;;;;25.98;16.25;;;;;;;9.20;66.10;102083.75;4961453;28;20487;-82
2023/01/02 03:57:27;;;;;;;31.17;16.40;;;;;;;9.21;66.39;102085.47;4954302;28;20471;-83
2023/01/02 04:00:07;;;;;;;28.03;16.03;;;;;;;9.18;66.63;102085.63;4953822;28;20068;-83
2023/01/02 04:02:41;;;;;;;33.28;16.85;;;;;;;9.01;66.79;102080.28;4953875;28;20035;-84
2023/01/02 04:05:19;;;;;;;29.52;17.33;;;;;;;9.09;66.56;102095.03;4961177;28;20054;-84
2023/01/02 04:07:54;;;;;;;34.83;17.42;;;;;;;9.12;66.99;102096.69;4978089;28;20082;-84
2023/01/02 04:10:21;;;;;;;29.35;18.90;;;;;;;9.16;66.73;102098.25;4978095;28;20083;-83
2023/01/02 04:12:51;;;;;;;30.15;18.30;;;;;;;9.13;66.75;102095.75;4971185;29;20042;-83
2023/01/02 04:15:19;;;;;;;28.08;16.73;;;;;;;9.12;66.82;102104.72;4969690;28;20027;-84
2023/01/02 04:18:08;;;;;;;32.90;16.17;;;;;;;9.08;66.98;102111.22;4941834;28;20387;-85
2023/01/02 04:20:41;;;;;;;27.15;17.52;;;;;;;8.95;67.42;102104.75;4955079;29;20190;-84
2023/01/02 04:23:18;;;;;;;34.42;18.85;;;;;;;8.94;67.47;102111.03;4953415;28;20034;-84
2023/01/02 04:26:18;;;;;;;30.05;17.50;;;;;;;8.94;67.76;102109.22;4952937;28;20059;-84
2023/01/02 04:28:43;;;;;;;27.40;16.20;;;;;;;8.86;68.00;102103.41;4952345;28;20532;-82
2023/01/02 04:31:18;;;;;;;31.77;18.10;;;;;;;8.95;67.77;102107.41;4935514;28;20031;-80
2023/01/02 04:34:03;;;;;;;37.03;18.38;;;;;;;8.92;68.16;102110.25;4951856;28;20031;-81
2023/01/02 04:36:28;;;;;;;40.55;18.67;;;;;;;9.00;67.81;102118.78;4935533;28;20046;-80
2023/01/02 04:38:54;;;;;;;32.72;19.25;;;;;;;8.81;67.81;102101.91;4952749;28;20031;-80
2023/01/02 04:41:28;;;;;;;39.78;23.00;;;;;;;8.89;67.96;102110.41;4952379;28;20023;-80
2023/01/02 04:43:56;;;;;;;39.30;21.95;;;;;;;8.85;68.15;102114.19;4950703;28;20039;-83
2023/01/02 04:46:23;;;;;;;47.45;23.40;;;;;;;8.88;67.81;102103.31;4951537;28;20031;-83
2023/01/02 04:48:49;;;;;;;92.30;45.78;;;;;;;8.83;67.79;102113.41;4952489;28;20038;-83
2023/01/02 04:51:14;;;;;;;52.00;25.52;;;;;;;8.63;68.45;102107.22;4951511;28;20031;-81
2023/01/02 04:53:40;;;;;;;42.65;24.23;;;;;;;8.64;68.51;102110.78;4952524;28;20031;-82
2023/01/02 04:56:06;;;;;;;43.03;23.52;;;;;;;8.61;68.98;102114.50;4955868;28;20506;-81
2023/01/02 04:58:31;;;;;;;50.45;25.58;;;;;;;8.62;69.23;102118.03;4954313;28;20019;-80
2023/01/02 05:00:57;;;;;;;45.55;21.48;;;;;;;8.57;69.16;102106.66;4934447;28;20543;-80
2023/01/02 05:03:22;;;;;;;38.60;20.05;;;;;;;8.48;69.07;102099.94;4951976;28;20956;-80
2023/01/02 05:05:47;;;;;;;42.13;21.05;;;;;;;8.53;69.30;102108.63;4934688;28;20487;-80
2023/01/02 05:08:13;;;;;;;50.85;20.00;;;;;;;8.61;68.94;102117.16;4951800;28;20034;-82
2023/01/02 05:10:38;;;;;;;34.25;19.55;;;;;;;8.56;69.17;102108.47;4952141;28;20066;-82
2023/01/02 05:13:04;;;;;;;27.90;17.17;;;;;;;8.70;68.83;102122.06;4956883;28;20031;-83
2023/01/02 05:15:29;;;;;;;34.05;19.55;;;;;;;8.65;69.07;102118.72;4958944;28;20129;-82
2023/01/02 05:17:55;;;;;;;36.25;19.20;;;;;;;8.66;68.69;102120.47;4959047;28;20094;-88
2023/01/02 05:20:21;;;;;;;37.90;18.42;;;;;;;8.66;68.97;102122.28;4963237;28;20035;-81
2023/01/02 05:25:32;;;;;;;43.85;20.23;;;;;;;8.60;69.09;102120.78;4958940;28;20059;-82
2023/01/02 05:27:58;;;;;;;53.03;19.75;;;;;;;8.59;69.11;102121.72;4958607;28;20023;-81
2023/01/02 05:30:24;;;;;;;49.75;19.50;;;;;;;8.57;69.39;102133.47;4958740;28;20090;-81
2023/01/02 05:32:50;;;;;;;45.42;20.60;;;;;;;8.56;69.14;102129.06;4959056;28;20150;-80
2023/01/02 05:35:15;;;;;;;38.70;18.13;;;;;;;8.60;69.21;102136.88;4958235;28;20031;-81
2023/01/02 05:37:41;;;;;;;32.88;17.88;;;;;;;8.66;69.06;102131.22;4958818;28;20031;-87
2023/01/02 05:40:07;;;;;;;42.28;18.38;;;;;;;8.56;68.67;102132.59;4959081;28;20031;-87
2023/01/02 05:42:33;;;;;;;27.70;18.23;;;;;;;8.55;68.78;102130.88;4959012;28;20518;-87
2023/01/02 05:44:58;;;;;;;28.95;18.42;;;;;;;8.48;69.22;102125.88;4941935;28;20039;-86
2023/01/02 05:47:24;;;;;;;29.10;18.35;;;;;;;8.38;69.68;102129.97;4959190;28;20023;-88
2023/01/02 05:49:49;;;;;;;49.22;19.13;;;;;;;8.51;69.70;102142.69;4964910;28;20029;-81
2023/01/02 05:52:15;;;;;;;36.38;19.45;;;;;;;8.46;69.18;102139.38;4959906;28;20487;-86
2023/01/02 05:54:40;;;;;;;29.73;18.83;;;;;;;8.47;69.13;102130.38;4960058;28;20038;-85
2023/01/02 05:57:07;;;;;;;27.33;17.70;;;;;;;8.61;69.32;102149.34;4962093;28;20468;-87
2023/01/02 05:59:32;;;;;;;43.42;17.38;;;;;;;8.65;68.69;102148.25;4977236;28;20086;-86
2023/01/02 06:01:58;;;;;;;31.63;17.50;;;;;;;8.70;68.91;102148.91;4970017;28;20035;-82
2023/01/02 06:04:23;;;;;;;53.33;17.85;;;;;;;8.70;68.90;102132.81;4960694;28;20519;-87
2023/01/02 06:06:49;;;;;;;34.65;17.88;;;;;;;8.71;68.91;102139.03;4960471;28;20033;-86
2023/01/02 06:09:15;;;;;;;34.33;18.65;;;;;;;8.72;68.55;102149.69;4960902;28;20019;-86
2023/01/02 06:11:41;;;;;;;34.00;17.58;;;;;;;8.74;68.70;102145.09;4960022;28;20442;-86
2023/01/02 06:14:07;;;;;;;32.13;17.75;;;;;;;8.69;68.42;102135.56;4958711;28;20031;-83
2023/01/02 06:16:33;;;;;;;44.45;17.83;;;;;;;8.80;68.52;102151.13;4959194;28;20031;-86
2023/01/02 06:18:58;;;;;;;36.08;17.70;;;;;;;8.69;68.36;102144.47;4958310;28;20019;-85
2023/01/02 06:21:24;;;;;;;37.30;18.35;;;;;;;8.77;68.97;102160.19;4972057;28;20023;-86
2023/01/02 06:23:57;;;;;;;26.25;16.85;;;;;;;8.78;68.92;102151.19;4956054;28;20382;-86
2023/01/02 06:26:25;;;;;;;43.10;18.83;;;;;;;8.77;68.65;102161.03;4959028;28;20043;-80
2023/01/02 06:28:55;;;;;;;52.53;20.33;;;;;;;8.77;68.51;102161.03;4976927;28;20406;-86
2023/01/02 06:31:24;;;;;;;51.03;21.65;;;;;;;8.83;68.67;102153.66;4977119;28;20533;-86
2023/01/02 06:33:54;;;;;;;33.13;19.73;;;;;;;8.88;68.61;102151.59;4974793;28;20593;-80
2023/01/02 06:36:20;;;;;;;43.38;21.70;;;;;;;8.93;68.82;102160.31;4977747;28;20050;-81
2023/01/02 06:38:45;;;;;;;43.47;22.95;;;;;;;8.88;68.95;102146.22;4974487;28;20027;-83
2023/01/02 06:41:12;;;;;;;43.08;22.33;;;;;;;8.99;68.85;102154.63;4974651;28;20478;-90
2023/01/02 06:43:43;;;;;;;51.67;23.33;;;;;;;9.09;68.82;102154.06;4959377;28;20034;-87
2023/01/02 06:46:09;;;;;;;44.15;23.80;;;;;;;9.12;68.92;102164.66;4957916;28;20030;-85
2023/01/02 06:48:34;;;;;;;38.13;21.60;;;;;;;9.14;68.31;102153.84;4974423;28;20026;-85
2023/01/02 06:51:04;;;;;;;42.03;22.75;;;;;;;9.18;68.52;102171.53;4973912;28;20397;-84
2023/01/02 06:53:33;;;;;;;41.90;21.42;;;;;;;9.23;68.91;102173.00;4974378;28;20109;-83
2023/01/02 06:55:58;;;;;;;45.45;21.63;;;;;;;9.29;69.13;102161.13;4977546;28;20234;-88
2023/01/02 06:58:27;;;;;;;39.65;19.85;;;;;;;9.24;69.18;102130.94;4934187;29;20082;-89
2023/01/02 07:00:52;;;;;;;35.60;19.60;;;;;;;9.53;68.97;102158.97;4938841;29;20189;-83
2023/01/02 07:03:18;;;;;;;40.33;19.98;;;;;;;9.56;68.45;102157.00;4946221;29;20567;-89
2023/01/02 07:05:44;;;;;;;44.30;21.75;;;;;;;9.68;68.54;102150.97;4940539;29;20058;-89
2023/01/02 07:08:11;;;;;;;44.63;24.50;;;;;;;9.93;68.32;102165.75;4916300;29;20051;-82
2023/01/02 07:10:37;;;;;;;44.85;22.88;;;;;;;10.06;68.29;102153.41;4932910;29;20035;-86
2023/01/02 07:13:03;;;;;;;55.67;23.48;;;;;;;10.17;67.52;102159.94;4933115;29;20102;-82
2023/01/02 07:15:29;;;;;;;38.65;22.25;;;;;;;10.27;67.59;102160.31;4932345;29;20125;-84
2023/01/02 07:17:55;;;;;;;47.58;25.50;;;;;;;10.31;67.08;102156.47;4915846;29;20050;-82
2023/01/02 07:20:20;;;;;;;54.92;29.92;;;;;;;10.45;66.76;102164.66;4917100;29;20155;-81
2023/01/02 07:22:50;;;;;;;51.42;31.35;;;;;;;10.56;66.50;102164.91;4898367;29;20040;-82
2023/01/02 07:25:16;;;;;;;53.97;29.33;;;;;;;10.70;66.38;102164.97;4894353;29;20135;-81
2023/01/02 07:27:42;;;;;;;61.42;34.78;;;;;;;10.87;65.83;102159.50;4908717;29;20084;-82
2023/01/02 07:30:08;;;;;;;64.13;32.05;;;;;;;11.05;65.71;102164.75;4925843;29;20051;-79
2023/01/02 07:32:33;;;;;;;59.00;34.05;;;;;;;11.16;65.37;102162.31;4932027;29;20035;-82
2023/01/02 07:34:59;;;;;;;57.00;31.75;;;;;;;11.32;64.69;102163.13;4930824;29;20062;-80
2023/01/02 07:37:24;;;;;;;56.88;30.20;;;;;;;11.37;64.52;102145.75;4933398;29;20045;-81
2023/01/02 07:39:50;;;;;;;44.10;27.88;;;;;;;11.51;64.14;102141.31;4934881;29;20348;-81
2023/01/02 07:42:15;;;;;;;49.78;30.38;;;;;;;11.64;63.14;102150.38;4937184;29;20795;-82
2023/01/02 07:44:40;;;;;;;53.15;32.47;;;;;;;11.76;63.42;102168.53;4934416;29;20450;-79
2023/01/02 07:47:06;;;;;;;57.67;35.03;;;;;;;11.83;62.96;102156.41;4934077;29;20035;-81
2023/01/02 07:49:31;;;;;;;60.08;30.33;;;;;;;11.94;62.83;102165.56;4934176;29;20077;-81
2023/01/02 07:51:57;;;;;;;68.65;33.03;;;;;;;12.02;62.38;102156.13;4934313;29;20519;-82
2023/01/02 07:54:22;;;;;;;67.72;32.42;;;;;;;12.09;62.05;102162.84;4935160;29;20039;-80
2023/01/02 07:56:48;;;;;;;62.25;28.58;;;;;;;12.19;62.15;102164.88;4934108;29;20637;-80
2023/01/02 07:59:13;;;;;;;56.33;26.70;;;;;;;12.29;62.04;102162.47;4934211;29;20031;-80
2023/01/02 08:01:38;;;;;;;49.17;25.90;;;;;;;12.32;61.46;102156.88;4934110;29;20118;-80
2023/01/02 08:04:04;;;;;;;48.22;26.13;;;;;;;12.40;61.31;102149.13;4936193;29;20040;-82
2023/01/02 08:06:29;;;;;;;56.50;25.23;;;;;;;12.59;60.71;102163.19;4935585;29;20090;-82
2023/01/02 08:08:55;;;;;;;51.20;25.90;;;;;;;12.69;60.40;102161.59;4948151;29;20031;-85
2023/01/02 08:11:21;;;;;;;52.55;27.55;;;;;;;12.72;60.45;102161.38;4954548;29;20027;-83
2023/01/02 08:13:47;;;;;;;55.10;26.88;;;;;;;12.83;60.32;102160.69;4954633;29;20032;-84
2023/01/02 08:16:16;;;;;;;50.67;27.27;;;;;;;12.86;60.25;102158.66;4954170;29;20032;-83
2023/01/02 08:18:42;;;;;;;47.92;28.05;;;;;;;12.95;60.38;102155.34;4944886;29;20028;-79
2023/01/02 08:21:09;;;;;;;47.65;28.10;;;;;;;13.13;59.95;102160.50;4942021;29;20547;-81
2023/01/02 08:23:35;;;;;;;50.38;28.60;;;;;;;13.25;59.42;102159.66;4935209;29;20038;-82
2023/01/02 08:26:04;;;;;;;50.95;26.85;;;;;;;13.38;59.66;102150.63;4935161;29;20055;-82
2023/01/02 08:28:29;;;;;;;36.28;24.70;;;;;;;13.37;58.50;102143.47;4952536;28;20058;-82
2023/01/02 08:30:55;;;;;;;52.53;28.50;;;;;;;13.58;58.41;102152.78;4918383;29;20110;-82
2023/01/02 08:33:21;;;;;;;36.38;23.90;;;;;;;13.56;58.85;102156.59;4951984;28;20395;-82
2023/01/02 08:35:46;;;;;;;71.63;43.30;;;;;;;13.60;58.95;102150.00;4952064;28;20101;-83
2023/01/02 08:38:12;;;;;;;42.28;22.45;;;;;;;13.78;58.72;102143.28;4952337;28;20031;-80
2023/01/02 08:40:38;;;;;;;34.65;21.98;;;;;;;13.91;58.57;102138.72;4935647;29;20031;-84
2023/01/02 08:43:05;;;;;;;49.15;24.17;;;;;;;14.12;57.71;102147.16;4952259;28;20487;-82
2023/01/02 08:45:31;;;;;;;48.08;21.15;;;;;;;14.27;57.60;102135.22;4952030;28;20031;-81
2023/01/02 08:47:56;;;;;;;40.38;19.63;;;;;;;14.33;56.11;102123.13;4950920;28;20031;-80
2023/01/02 08:50:22;;;;;;;32.33;15.80;;;;;;;14.27;55.46;102119.00;4952145;28;20039;-83
2023/01/02 08:52:47;;;;;;;48.92;18.33;;;;;;;14.45;55.12;102124.91;4951785;28;20050;-81
2023/01/02 08:55:13;;;;;;;31.83;17.20;;;;;;;14.40;55.06;102102.75;4952179;28;20042;-86
2023/01/02 08:57:38;;;;;;;46.15;18.15;;;;;;;14.64;54.85;102117.16;4953205;28;20020;-85
2023/01/02 09:00:04;;;;;;;22.52;15.15;;;;;;;14.57;54.54;102099.63;4956529;28;20035;-89
2023/01/02 09:02:30;;;;;;;58.53;16.88;;;;;;;14.81;54.49;102113.16;4954539;28;20130;-84
2023/01/02 09:04:55;;;;;;;50.20;17.77;;;;;;;14.91;53.79;102109.66;4960331;28;20035;-86
2023/01/02 09:07:20;;;;;;;28.67;15.25;;;;;;;14.87;53.47;102102.75;4975758;28;20046;-88
2023/01/02 09:09:46;;;;;;;24.00;14.88;;;;;;;15.07;53.43;102106.66;4975631;28;20066;-87
2023/01/02 09:12:11;;;;;;;33.10;15.10;;;;;;;15.20;52.99;102094.72;4937682;29;20031;-87
2023/01/02 09:14:37;;;;;;;24.17;15.43;;;;;;;15.35;52.87;102106.22;4936462;29;20086;-89
2023/01/02 09:17:02;;;;;;;34.75;14.45;;;;;;;15.43;52.63;102073.97;4953005;28;20030;-86
2023/01/02 09:19:28;;;;;;;39.78;14.02;;;;;;;15.59;51.61;102084.50;4952773;28;20086;-83
2023/01/02 09:21:54;;;;;;;33.38;13.05;;;;;;;15.58;50.88;102069.22;4952532;28;20035;-82
2023/01/02 09:24:19;;;;;;;22.25;13.00;;;;;;;15.73;50.88;102078.84;4934733;29;20055;-82
2023/01/02 09:26:45;;;;;;;28.17;12.48;;;;;;;15.70;50.19;102076.38;4952272;28;20079;-86
2023/01/02 09:29:11;;;;;;;23.90;12.27;;;;;;;15.62;50.54;102068.84;4953349;29;20470;-87
2023/01/02 09:31:37;;;;;;;23.70;12.68;;;;;;;15.78;50.17;102068.47;4953021;28;20082;-88
2023/01/02 09:34:03;;;;;;;29.50;13.38;;;;;;;15.70;50.60;102070.94;4952634;28;20031;-87
2023/01/02 09:36:28;;;;;;;17.50;12.18;;;;;;;15.65;50.64;102067.75;4952559;28;20441;-86
2023/01/02 09:38:56;;;;;;;27.65;12.02;;;;;;;15.66;50.54;102054.03;4952915;28;20039;-88
2023/01/02 09:41:31;;;;;;;21.17;11.90;;;;;;;15.82;50.33;102053.69;4957797;28;20027;-88
2023/01/02 09:44:20;;;;;;;26.45;12.40;;;;;;;15.92;50.55;102049.25;4953267;28;20031;-87
2023/01/02 09:46:59;;;;;;;29.83;11.45;;;;;;;15.99;50.04;102055.88;4952571;28;20043;-87
2023/01/02 09:49:41;;;;;;;18.75;10.80;;;;;;;16.00;49.43;102045.88;4951884;28;20046;-89
2023/01/02 09:52:21;;;;;;;27.05;11.52;;;;;;;16.11;48.87;102043.19;4934887;28;20027;-87
2023/01/02 09:54:46;;;;;;;49.97;13.68;;;;;;;16.19;47.82;102030.69;4952313;28;20164;-89
2023/01/02 09:57:40;;;;;;;27.75;8.95;;;;;;;16.16;47.09;102041.81;4952566;28;20147;-86
2023/01/02 10:00:15;;;;;;;13.88;8.80;;;;;;;16.28;46.38;102040.78;4955940;28;20039;-88
2023/01/02 10:02:59;;;;;;;14.27;9.40;;;;;;;16.28;46.29;102035.34;4940310;28;20031;-87
2023/01/02 10:05:48;;;;;;;16.38;8.30;;;;;;;16.16;46.45;102016.50;4938821;28;20094;-87
2023/01/02 10:08:42;;;;;;;17.05;8.18;;;;;;;16.29;45.56;102030.78;4964067;28;20032;-84
2023/01/02 10:11:43;;;;;;;23.02;8.63;;;;;;;16.32;44.87;102039.56;4873183;29;20124;-83
2023/01/02 10:14:18;;;;;;;14.77;8.15;;;;;;;16.32;44.67;102030.53;4864372;29;20038;-85
2023/01/02 10:16:51;;;;;;;25.40;10.00;;;;;;;16.21;45.08;102033.25;4860263;29;20101;-81
2023/01/02 10:19:31;;;;;;;13.57;7.85;;;;;;;16.09;44.73;102021.56;4858752;29;20135;-85
2023/01/02 10:22:00;;;;;;;31.77;9.30;;;;;;;16.26;44.66;102015.63;4858733;29;20049;-79
2023/01/02 10:24:49;;;;;;;21.15;7.25;;;;;;;16.39;43.93;102017.31;4857799;29;20065;-80
2023/01/02 10:27:19;;;;;;;29.35;13.90;;;;;;;16.53;43.67;102017.00;4857886;29;20033;-83
2023/01/02 10:30:01;;;;;;;10.73;7.03;;;;;;;16.43;43.48;101991.59;4857942;29;20049;-84
2023/01/02 10:32:28;;;;;;;26.20;8.55;;;;;;;16.61;43.33;101992.78;4850551;29;20188;-82
2023/01/02 10:35:06;;;;;;;22.40;10.05;;;;;;;16.67;42.63;101997.69;4858245;29;20034;-86
2023/01/02 10:37:33;;;;;;;16.75;6.60;;;;;;;16.72;42.52;101995.47;4858199;29;20171;-85
2023/01/02 10:39:58;;;;;;;15.90;6.95;;;;;;;16.79;42.34;101988.50;4858197;29;20057;-90
2023/01/02 10:42:24;;;;;;;27.55;8.48;;;;;;;16.74;42.67;101974.47;4857785;29;20068;-85
2023/01/02 10:44:50;;;;;;;17.67;7.57;;;;;;;16.75;42.76;101987.06;4858237;29;20069;-83
2023/01/02 10:47:37;;;;;;;13.68;6.82;;;;;;;16.71;42.85;101980.16;4872595;29;20055;-86
2023/01/02 10:50:16;;;;;;;17.15;6.40;;;;;;;16.87;42.32;101983.28;4955565;28;20031;-83
2023/01/02 10:52:50;;;;;;;14.68;7.47;;;;;;;16.88;42.32;101979.56;4955569;28;20027;-85
2023/01/02 10:55:35;;;;;;;18.08;6.55;;;;;;;16.93;42.24;101976.47;4954919;28;20059;-86
2023/01/02 10:58:22;;;;;;;17.58;6.80;;;;;;;17.04;42.21;101969.09;4935703;28;20086;-86
2023/01/02 11:00:50;;;;;;;27.33;8.77;;;;;;;17.11;42.07;101962.13;4955593;28;20117;-86
2023/01/02 11:03:21;;;;;;;15.38;6.10;;;;;;;17.21;41.87;101960.34;4955578;28;20024;-85
2023/01/02 11:05:49;;;;;;;24.20;6.05;;;;;;;17.25;41.78;101958.19;4954833;28;20031;-83
2023/01/02 11:08:19;;;;;;;26.27;6.45;;;;;;;17.07;41.71;101952.50;4954762;28;20114;-82
2023/01/02 11:10:45;;;;;;;20.95;8.00;;;;;;;17.27;41.75;101957.06;4947401;28;20023;-82
2023/01/02 11:13:16;;;;;;;20.77;6.38;;;;;;;17.41;41.43;101944.94;4966960;28;20034;-85
2023/01/02 11:15:56;;;;;;;18.42;7.28;;;;;;;17.47;41.47;101957.13;4959297;28;20441;-84
2023/01/02 11:18:29;;;;;;;8.90;6.25;;;;;;;17.48;41.33;101945.25;4954856;28;20031;-86
2023/01/02 11:21:03;;;;;;;19.15;7.55;;;;;;;17.66;41.41;101938.19;4957050;28;20062;-86
2023/01/02 11:23:35;;;;;;;12.85;7.32;;;;;;;17.75;40.91;101927.34;4955685;28;20106;-86
2023/01/02 11:26:02;;;;;;;18.50;8.15;;;;;;;17.80;40.97;101929.63;4955383;28;20074;-87
2023/01/02 11:28:33;;;;;;;11.82;7.78;;;;;;;17.70;41.05;101943.25;4955014;28;20042;-85